logo
App data

Girls Like Robots

Their faces are the playing pieces. The rules are their emotions!Ridiculously charming puzzles, wrapped around an epic tale of love and danger, topped off with an authentic old-time stringband soundtrack!The goal is to put every one next to their friends.But you can't please everybody all the time.
Store | Hub | SteamDB | Site
Developer: Popcannibal Publisher: Popcannibal
Genre: Adventure, Casual, Indie
Languages: English, Japanese
Tags: Puzzle (55), Casual (54), Indie (45), Robots (26), Adventure (25), Cute (12), Funny (6)
Category: Single-player, Steam Achievements, Steam Trading Cards, Partial Controller Support, Steam Cloud, Stats, Steam Leaderboards
Release date: Feb 14, 2014
Price: $6.99
Old userscore: 70% Owners: 100,000 .. 200,000
Followers: 0
Peak concurrent players yesterday: 2
Playtime total: 02:24 (average) 03:38 (median)

Steam Spy is still in beta, so expect major bugs.

Owners data:

Access restricted.

This feature is only available to users with special access rights. Sorry.

If you want to proceed, you need to register or log in first and then back Steam Spy on Patreon. Look for Indie or Pro pledge.

Don't forget to use the same email as on Steam Spy!

If you've recently backed Steam Spy on Patreon, please note, that it might take around 15 minutes for your access rights to sync. In most cases you'll need to re-login on Steam Spy too.

Audience in 2 weeks:

Access restricted.

This feature is only available to users with special access rights. Sorry.

If you want to proceed, you need to register or log in first and then back Steam Spy on Patreon. Look for Indie or Pro pledge.

Don't forget to use the same email as on Steam Spy!

If you've recently backed Steam Spy on Patreon, please note, that it might take around 15 minutes for your access rights to sync. In most cases you'll need to re-login on Steam Spy too.

Peak daily concurrent players:

CCU data courtesy of SteamDB. Used with permission.

Hourly concurrent players:

Daily Twitch stats:

Hourly Twitch stats:

Followers over time

Access restricted.

This feature is only available to users with special access rights. Sorry.

If you want to proceed, you need to register or log in first and then back Steam Spy on Patreon. Look for Indie or Pro pledge.

Don't forget to use the same email as on Steam Spy!

If you've recently backed Steam Spy on Patreon, please note, that it might take around 15 minutes for your access rights to sync. In most cases you'll need to re-login on Steam Spy too.

Views for top 50 videos on YouTube for this game:

Games similar to this one:

# Game Release date
Price
Score rank
(Userscore / Metascore)
Owners
Players
Playtime (Median)
1 Sophie's Curse Mar 16, 2016 $4.99N/A (N/A)50,000 .. 100,0000%00:00 (00:00)
2 Autumn Sep 23, 2014 $2.99N/A (N/A)100,000 .. 200,0000%00:00 (00:00)
3 hackmud Sep 22, 2016 $19.99N/A (N/A)20,000 .. 50,0000%00:00 (00:00)
4 King's Guard TD Jun 8, 2016 $2.99N/A (N/A)100,000 .. 200,0000%00:00 (00:00)
5 Hyposphere May 5, 2016 $2.99N/A (N/A)200,000 .. 500,0000%00:00 (00:00)
6 One Last Chance Apr 7, 2016 $3.99N/A (N/A)20,000 .. 50,0000%00:00 (00:00)
7 Forgotten, Not Lost - A Kinetic Novel Apr 2, 2016 $1.99N/A (N/A)20,000 .. 50,0000%00:00 (00:00)
8 Burst Mar 14, 2016 N/AN/A (N/A)20,000 .. 50,0000%00:00 (00:00)
9 Caravanserail Feb 26, 2016 $2.99N/A (N/A)0 .. 20,0000%00:00 (00:00)
10 RePete Nov 1, 2015 $1.99N/A (N/A)0 .. 20,0000%00:00 (00:00)
11 Night Blights Apr 15, 2016 $6.99N/A (N/A)0 .. 20,0000%00:00 (00:00)
12 Magma Tsunami Jun 1, 2016 $0.99N/A (N/A)200,000 .. 500,0000%00:00 (00:00)
13 Broken Dreams Feb 19, 2016 $1.99N/A (N/A)500,000 .. 1,000,0000%00:00 (00:00)
14 Recursion Deluxe Feb 12, 2016 $4.99N/A (N/A)0 .. 20,0000%00:00 (00:00)
15 Air Missions: HIND Mar 21, 2016 $16.99N/A (N/A)20,000 .. 50,0000%00:00 (00:00)
16 SquareCells Dec 7, 2015 $2.99N/A (N/A)50,000 .. 100,0000%00:00 (00:00)
17 Cyber Team Manager Jan 8, 2016 $4.99N/A (N/A)0 .. 20,0000%00:00 (00:00)
18 Herding Dog Dec 25, 2015 $0.99N/A (N/A)0 .. 20,0000%00:00 (00:00)
19 The Last NightMary - A Lenda do Cabeça de Cuia Nov 2, 2015 $3.99N/A (N/A)50,000 .. 100,0000%00:00 (00:00)
20 Star Sky Oct 23, 2015 $3.99N/A (N/A)0 .. 20,0000%00:00 (00:00)
21 Lift It Jan 20, 2017 $4.99N/A (N/A)50,000 .. 100,0000%00:00 (00:00)
22 Archimedes Oct 6, 2016 $1.99N/A (N/A)20,000 .. 50,0000%00:00 (00:00)
23 Darkarta: A Broken Heart's Quest Collector's Edition Mar 8, 2017 $9.99N/A (N/A)50,000 .. 100,0000%00:00 (00:00)
24 Dungeon Painter Studio Feb 26, 2017 $14.99N/A (N/A)50,000 .. 100,0000%00:00 (00:00)
25 Ninja Stealth 2 Jan 30, 2017 $0.99N/A (N/A)50,000 .. 100,0000%00:00 (00:00)
26 Griptape Backbone May 5, 2017 FreeN/A (N/A)0 .. 20,0000%00:00 (00:00)
27 Winexy Jan 13, 2017 $0.49N/A (N/A)50,000 .. 100,0000%00:00 (00:00)
28 iREC Jan 16, 2017 $2.99N/A (N/A)100,000 .. 200,0000%00:00 (00:00)
29 Neon Prism Nov 18, 2016 $10.99N/A (N/A)50,000 .. 100,0000%00:00 (00:00)
30 The Survey Oct 27, 2016 $4.99N/A (N/A)20,000 .. 50,0000%00:00 (00:00)
31 GO AWAY, THERE'S KUMIS OVER THERE! Oct 28, 2016 $0.99N/A (N/A)50,000 .. 100,0000%00:00 (00:00)
32 Kombine Oct 14, 2016 $0.99N/A (N/A)20,000 .. 50,0000%00:00 (00:00)
33 Gridworld Dec 29, 2015 $0.99N/A (N/A)0 .. 20,0000%00:00 (00:00)
34 Turbo Pug 3D Sep 20, 2016 $0.99N/A (N/A)200,000 .. 500,0000%00:00 (00:00)
35 Optika Aug 26, 2016 $4.99N/A (N/A)0 .. 20,0000%00:00 (00:00)
36 Clock Simulator Jul 20, 2016 N/AN/A (N/A)20,000 .. 50,0000%00:00 (00:00)
37 ConflictCraft Dec 8, 2016 $1.99N/A (N/A)100,000 .. 200,0000%00:00 (00:00)
38 Beeftacular Aug 26, 2016 $2.99N/A (N/A)0 .. 20,0000%00:00 (00:00)
39 12 Labours of Hercules V: Kids of Hellas (Platinum Edition) Jun 17, 2016 $2.99N/A (N/A)20,000 .. 50,0000%00:00 (00:00)
40 Hide and Secret Treasure of the Ages Mar 15, 2007 $4.99N/A (N/A)20,000 .. 50,0000%00:00 (00:00)
41 Totally Unbalanced Jul 29, 2016 FreeN/A (N/A)50,000 .. 100,0000%00:00 (00:00)
42 Frog Climbers Oct 6, 2016 $6.99N/A (N/A)20,000 .. 50,0000%00:00 (00:00)
43 Wildlife Park 2 - Dino World Mar 30, 2012 $3.99N/A (N/A)20,000 .. 50,0000%00:00 (00:00)
44 Streets of Chaos Jan 23, 2015 N/AN/A (N/A)100,000 .. 200,0000%00:00 (00:00)
45 Stay Alight Mar 2, 2015 $3.99N/A (N/A)50,000 .. 100,0000%00:00 (00:00)
46 Pixel Puzzles 2: Birds Feb 20, 2015 $4.99N/A (N/A)200,000 .. 500,0000%00:00 (00:00)
47 Bob Was Hungry Aug 19, 2015 $9.99N/A (N/A)50,000 .. 100,0000%00:00 (00:00)
48 12 Labours of Hercules Mar 23, 2015 $2.99N/A (N/A)100,000 .. 200,0000%00:00 (00:00)
49 Marble Duel: Sphere-Matching Tactical Fantasy Nov 12, 2015 $14.99N/A (N/A)50,000 .. 100,0000%00:00 (00:00)
50 Steam and Metal Feb 9, 2015 $4.99N/A (N/A)0 .. 20,0000%00:00 (00:00)
51 The Jackbox Party Pack Nov 26, 2014 $24.99N/A (N/A)200,000 .. 500,0000%00:00 (00:00)
52 Sinister City Oct 18, 2014 $0.99N/A (N/A)100,000 .. 200,0000%00:00 (00:00)
53 Bloop Reloaded Feb 6, 2015 FreeN/A (N/A)100,000 .. 200,0000%00:00 (00:00)
54 Chip's Challenge 2 May 28, 2015 $4.99N/A (N/A)20,000 .. 50,0000%00:00 (00:00)
55 Cyto Jul 10, 2014 $3.99N/A (N/A)20,000 .. 50,0000%00:00 (00:00)
56 On Rusty Trails Jun 13, 2016 $12.99N/A (N/A/77%)0 .. 20,0000%00:00 (00:00)
57 Tribloos 2 Jan 12, 2013 $4.99N/A (N/A)100,000 .. 200,0000%00:00 (00:00)
58 Paranormal State: Poison Spring Nov 26, 2013 $9.99N/A (N/A)50,000 .. 100,0000%00:00 (00:00)
59 Dead Man's Draw Feb 6, 2014 $6.99N/A (N/A)50,000 .. 100,0000%00:00 (00:00)
60 Particulars Nov 19, 2014 FreeN/A (N/A/74%)0 .. 20,0000%00:00 (00:00)
61 Oozi: Earth Adventure Dec 5, 2013 $4.99N/A (N/A/66%)20,000 .. 50,0000%00:00 (00:00)
62 Luxor Evolved Mar 1, 2012 $9.99N/A (N/A)20,000 .. 50,0000%00:00 (00:00)
63 Axel & Pixel Oct 6, 2010 $4.99N/A (N/A)20,000 .. 50,0000%00:00 (00:00)
64 Fate Tectonics Sep 9, 2015 $4.99N/A (N/A)20,000 .. 50,0000%00:00 (00:00)
65 12 Labours of Hercules IV: Mother Nature (Platinum Edition) Dec 25, 2015 $2.99N/A (N/A)20,000 .. 50,0000%00:00 (00:00)
66 The Deletion Jul 30, 2015 $1.99N/A (N/A)20,000 .. 50,0000%00:00 (00:00)
67 Robot vs Birds Zombies Jun 1, 2013 $0.99N/A (N/A)500,000 .. 1,000,0000%00:00 (00:00)
68 In Between Aug 21, 2015 $11.99N/A (N/A/68%)50,000 .. 100,0000%00:00 (00:00)
69 Alpha Runner Sep 2, 2015 $0.99N/A (N/A)100,000 .. 200,0000%00:00 (00:00)
70 Asphyxia Aug 4, 2015 $5.99N/A (N/A)20,000 .. 50,0000%00:00 (00:00)
71 Wanda - A Beautiful Apocalypse Jun 3, 2016 $1.99N/A (N/A)100,000 .. 200,0000%00:00 (00:00)
72 Job the Leprechaun Jul 31, 2015 $2.99N/A (N/A)20,000 .. 50,0000%00:00 (00:00)
73 Star Chronicles: Delta Quadrant Jul 7, 2015 $0.99N/A (N/A)200,000 .. 500,0000%00:00 (00:00)
74 Thrillville: Off the Rails Oct 9, 2007 $9.99N/A (N/A/70%)20,000 .. 50,0000%00:00 (00:00)
75 Space Drifters 2D Mar 28, 2016 $0.99N/A (N/A)20,000 .. 50,0000%00:00 (00:00)
76 Power of Love Jul 21, 2015 $0.99N/A (N/A)20,000 .. 50,0000%00:00 (00:00)
77 Beat Da Beat Mar 10, 2016 $1.99N/A (N/A)20,000 .. 50,0000%00:00 (00:00)
78 Egg Returns Home May 5, 2015 FreeN/A (N/A)50,000 .. 100,0000%00:00 (00:00)
79 The Reject Demon: Toko Chapter 0 — Prelude May 9, 2015 $4.99N/A (N/A)20,000 .. 50,0000%00:00 (00:00)
80 Earthtongue Apr 27, 2015 $4.99N/A (N/A)50,000 .. 100,0000%00:00 (00:00)
81 Alter World May 29, 2015 $1.99N/A (N/A)200,000 .. 500,0000%00:00 (00:00)
82 Drizzlepath Mar 12, 2015 $1.99N/A (N/A)20,000 .. 50,0000%00:00 (00:00)
83 Pester Jan 25, 2013 $0.99N/A (N/A)100,000 .. 200,0000%00:00 (00:00)

Tags over time:

Access restricted.

This feature is only available to users with special access rights. Sorry.

If you want to proceed, you need to register or log in first and then back Steam Spy on Patreon. Look for Indie or Pro pledge.

Don't forget to use the same email as on Steam Spy!

If you've recently backed Steam Spy on Patreon, please note, that it might take around 15 minutes for your access rights to sync. In most cases you'll need to re-login on Steam Spy too.

Owners of this game also own:

Access restricted.

This feature is only available to users with special access rights. Sorry.

If you want to proceed, you need to register or log in first and then back Steam Spy on Patreon. Look for Indie or Pro pledge.

Don't forget to use the same email as on Steam Spy!

If you've recently backed Steam Spy on Patreon, please note, that it might take around 15 minutes for your access rights to sync. In most cases you'll need to re-login on Steam Spy too.

Playtime distribution:

Access restricted.

This feature is only available to users with special access rights. Sorry.

If you want to proceed, you need to register or log in first and then back Steam Spy on Patreon. Look for Indie or Pro pledge.

Don't forget to use the same email as on Steam Spy!

If you've recently backed Steam Spy on Patreon, please note, that it might take around 15 minutes for your access rights to sync. In most cases you'll need to re-login on Steam Spy too.

Playtime (2 weeks):

Access restricted.

This feature is only available to users with special access rights. Sorry.

If you want to proceed, you need to register or log in first and then back Steam Spy on Patreon. Look for Indie or Pro pledge.

Don't forget to use the same email as on Steam Spy!

If you've recently backed Steam Spy on Patreon, please note, that it might take around 15 minutes for your access rights to sync. In most cases you'll need to re-login on Steam Spy too.

User reviews:

Login required.

Please register or log in to see this information.